createdAt,value
2022-11-12T00:02:14.275Z,10.83
2022-11-12T00:05:01.175Z,10.23
2022-11-12T00:07:48.017Z,8.37
2022-11-12T00:10:35.058Z,13.27
2022-11-12T00:13:21.846Z,9.37
2022-11-12T00:16:08.638Z,10.50
2022-11-12T00:18:55.523Z,10.00
2022-11-12T00:21:42.445Z,10.57
2022-11-12T00:24:29.247Z,9.87
2022-11-12T00:27:16.102Z,9.30
2022-11-12T00:30:03.020Z,10.43
2022-11-12T00:32:50.037Z,10.20
2022-11-12T00:35:36.999Z,9.73
2022-11-12T00:38:24.244Z,10.17
2022-11-12T00:41:11.223Z,8.60
2022-11-12T00:43:58.112Z,12.00
2022-11-12T00:46:45.053Z,10.13
2022-11-12T00:49:31.912Z,8.60
2022-11-12T00:52:18.757Z,11.60
2022-11-12T00:55:05.634Z,9.53
2022-11-12T00:57:52.518Z,7.13
2022-11-12T01:00:39.430Z,8.23
2022-11-12T01:03:27.853Z,8.93
2022-11-12T01:06:15.944Z,8.43
2022-11-12T01:09:02.791Z,9.07
2022-11-12T01:11:49.936Z,8.90
2022-11-12T01:14:36.876Z,9.53
2022-11-12T01:17:23.730Z,6.87
2022-11-12T01:20:10.670Z,8.60
2022-11-12T01:22:57.455Z,9.33
2022-11-12T01:25:44.243Z,9.30
2022-11-12T01:28:31.032Z,11.43
2022-11-12T01:31:17.918Z,8.97
2022-11-12T01:34:06.363Z,9.87
2022-11-12T01:36:53.275Z,9.93
2022-11-12T01:39:40.069Z,9.67
2022-11-12T01:42:30.175Z,9.67
2022-11-12T01:45:17.004Z,10.20
2022-11-12T01:48:04.591Z,10.33
2022-11-12T01:50:52.064Z,7.00
2022-11-12T01:53:41.440Z,8.20
2022-11-12T01:56:29.894Z,7.63
2022-11-12T01:59:19.201Z,7.93
2022-11-12T02:02:06.043Z,9.80
2022-11-12T02:04:54.569Z,9.77
2022-11-12T02:07:42.288Z,8.73
2022-11-12T02:10:29.523Z,9.83
2022-11-12T02:13:35.459Z,8.00
2022-11-12T02:16:22.379Z,9.47
2022-11-12T02:19:11.069Z,11.33
2022-11-12T02:21:57.912Z,10.37
2022-11-12T02:24:44.698Z,10.23
2022-11-12T02:27:31.517Z,12.43
2022-11-12T02:30:19.496Z,9.17
2022-11-12T02:33:06.369Z,10.27
2022-11-12T02:35:53.227Z,9.00
2022-11-12T02:38:40.089Z,8.87
2022-11-12T02:41:27.206Z,8.27
2022-11-12T02:44:14.086Z,9.80
2022-11-12T02:47:00.862Z,9.57
2022-11-12T02:49:47.707Z,7.93
2022-11-12T02:52:35.011Z,9.17
2022-11-12T02:55:21.858Z,10.83
2022-11-12T02:58:08.730Z,10.47
2022-11-12T03:00:56.126Z,11.00
2022-11-12T03:03:42.957Z,8.40
2022-11-12T03:06:29.820Z,11.40
2022-11-12T03:09:16.697Z,11.57
2022-11-12T03:12:03.636Z,9.97
2022-11-12T03:14:50.435Z,9.53
2022-11-12T03:17:37.243Z,9.80
2022-11-12T03:20:24.146Z,9.40
2022-11-12T03:23:11.607Z,11.47
2022-11-12T03:25:58.729Z,11.17
2022-11-12T03:28:45.477Z,12.97
2022-11-12T03:31:32.304Z,11.53
2022-11-12T03:34:19.074Z,11.73
2022-11-12T03:37:09.611Z,13.97
2022-11-12T03:39:56.480Z,10.67
2022-11-12T03:42:47.783Z,10.50
2022-11-12T03:45:34.633Z,12.23
2022-11-12T03:48:22.134Z,13.53
2022-11-12T03:51:08.994Z,10.93
2022-11-12T03:53:55.853Z,13.67
2022-11-12T03:56:42.585Z,12.10
2022-11-12T03:59:29.510Z,14.73
2022-11-12T04:02:16.406Z,14.47
2022-11-12T04:05:22.469Z,11.60
2022-11-12T04:08:35.508Z,12.70
2022-11-12T04:11:22.349Z,11.80
2022-11-12T04:14:09.199Z,11.57
2022-11-12T04:17:14.551Z,10.70
2022-11-12T04:20:23.420Z,12.37
2022-11-12T04:23:10.349Z,11.13
2022-11-12T04:26:16.113Z,14.33
2022-11-12T04:29:21.714Z,9.90
2022-11-12T04:32:08.671Z,11.83
2022-11-12T04:34:55.842Z,9.90
2022-11-12T04:37:45.786Z,11.60
2022-11-12T04:40:50.946Z,10.33
2022-11-12T04:43:56.278Z,11.50
2022-11-12T04:46:43.099Z,10.93
2022-11-12T04:49:29.982Z,10.00
2022-11-12T04:52:17.140Z,10.27
2022-11-12T04:55:04.223Z,11.20
2022-11-12T04:57:52.764Z,10.37
2022-11-12T05:00:43.023Z,10.20
2022-11-12T05:03:35.975Z,8.50
2022-11-12T05:06:41.528Z,9.10
2022-11-12T05:09:28.946Z,7.50
2022-11-12T05:12:15.758Z,8.07
2022-11-12T05:15:02.839Z,12.00
2022-11-12T05:17:49.690Z,9.67
2022-11-12T05:20:36.639Z,10.80
2022-11-12T05:23:23.506Z,8.50
2022-11-12T05:26:10.364Z,11.17
2022-11-12T05:28:57.114Z,11.13
2022-11-12T05:31:43.983Z,9.67
2022-11-12T05:34:31.045Z,9.07
2022-11-12T05:37:18.058Z,8.33
2022-11-12T05:40:05.178Z,12.03
2022-11-12T05:42:52.152Z,11.33
2022-11-12T05:45:42.231Z,9.70
2022-11-12T05:48:29.541Z,9.33
2022-11-12T05:51:16.756Z,10.40
2022-11-12T05:54:03.702Z,11.33
2022-11-12T05:56:51.561Z,10.10
2022-11-12T05:59:38.402Z,10.27
2022-11-12T06:02:25.282Z,10.30
2022-11-12T06:05:12.102Z,10.47
2022-11-12T06:07:58.970Z,7.80
2022-11-12T06:10:49.456Z,10.50
2022-11-12T06:13:36.350Z,8.10
2022-11-12T06:16:23.311Z,8.67
2022-11-12T06:19:10.163Z,9.47
2022-11-12T06:21:57.016Z,11.73
2022-11-12T06:24:43.891Z,10.90
2022-11-12T06:27:30.742Z,11.43
2022-11-12T06:30:21.655Z,9.93
2022-11-12T06:33:11.334Z,11.17
2022-11-12T06:36:03.075Z,10.30
2022-11-12T06:38:50.236Z,11.67
2022-11-12T06:41:37.110Z,9.33
2022-11-12T06:44:23.916Z,9.27
2022-11-12T06:47:10.870Z,14.80
2022-11-12T06:49:57.678Z,12.13
2022-11-12T06:52:44.556Z,9.70
2022-11-12T06:55:31.370Z,11.53
2022-11-12T06:58:18.162Z,12.23
2022-11-12T07:01:11.153Z,10.33
2022-11-12T07:03:58.663Z,11.63
2022-11-12T07:06:45.608Z,11.10
2022-11-12T07:09:32.537Z,10.10
2022-11-12T07:12:19.386Z,10.37
2022-11-12T07:15:06.460Z,10.07
2022-11-12T07:17:53.694Z,10.20
2022-11-12T07:20:40.538Z,12.10
2022-11-12T07:23:27.930Z,11.17
2022-11-12T07:26:14.946Z,13.87
2022-11-12T07:29:01.850Z,10.17
2022-11-12T07:31:48.691Z,12.17
2022-11-12T07:34:35.479Z,10.23
2022-11-12T07:37:22.271Z,13.27
2022-11-12T07:40:09.213Z,15.00
2022-11-12T07:42:56.103Z,11.77
2022-11-12T07:45:43.770Z,12.40
2022-11-12T07:48:30.907Z,11.57
2022-11-12T07:51:21.766Z,15.77
2022-11-12T07:54:08.614Z,13.17
2022-11-12T07:56:55.412Z,12.30
2022-11-12T07:59:46.103Z,13.67
2022-11-12T08:02:33.452Z,16.30
2022-11-12T08:05:23.441Z,12.63
2022-11-12T08:08:19.186Z,12.53
2022-11-12T08:11:08.749Z,12.73
2022-11-12T08:13:56.341Z,14.13
2022-11-12T08:16:43.132Z,14.33
2022-11-12T08:19:29.980Z,13.17
2022-11-12T08:22:16.779Z,13.37
2022-11-12T08:25:03.673Z,12.27
2022-11-12T08:27:50.737Z,13.00
2022-11-12T08:30:37.519Z,11.87
2022-11-12T08:33:24.690Z,14.70
2022-11-12T08:36:13.032Z,11.37
2022-11-12T08:38:59.943Z,13.80
2022-11-12T08:41:46.825Z,13.83
2022-11-12T08:44:34.025Z,11.50
2022-11-12T08:47:20.829Z,13.83
2022-11-12T08:50:07.823Z,15.00
2022-11-12T08:52:59.059Z,12.57
2022-11-12T08:55:45.836Z,13.63
2022-11-12T08:58:32.714Z,14.93
2022-11-12T09:01:19.581Z,13.43
2022-11-12T09:04:06.436Z,14.87
2022-11-12T09:06:54.189Z,12.40
2022-11-12T09:09:41.194Z,15.90
2022-11-12T09:12:28.383Z,15.67
2022-11-12T09:18:21.971Z,13.30
2022-11-12T09:21:10.785Z,13.67
2022-11-12T09:23:57.643Z,12.87
2022-11-12T09:26:44.502Z,14.17
2022-11-12T09:29:31.332Z,11.97
2022-11-12T09:32:18.243Z,11.57
2022-11-12T09:35:05.258Z,13.77
2022-11-12T09:37:52.118Z,13.33
2022-11-12T09:40:44.339Z,18.10
2022-11-12T09:43:36.991Z,12.30
2022-11-12T09:46:28.048Z,13.43
2022-11-12T09:49:19.707Z,12.87
2022-11-12T09:52:06.512Z,14.03
2022-11-12T09:55:08.905Z,13.70
2022-11-12T09:57:56.331Z,11.47
2022-11-12T10:00:47.471Z,12.87
2022-11-12T10:03:47.023Z,10.93
2022-11-12T10:06:52.595Z,11.13
2022-11-12T10:09:58.416Z,12.87
2022-11-12T10:12:56.000Z,10.90
2022-11-12T10:16:04.259Z,9.80
2022-11-12T10:19:00.393Z,14.07
2022-11-12T10:22:05.911Z,12.30
2022-11-12T10:24:53.123Z,12.17
2022-11-12T10:27:40.753Z,11.77
2022-11-12T10:30:27.633Z,12.13
2022-11-12T10:33:15.157Z,10.73
2022-11-12T10:36:18.731Z,10.53
2022-11-12T10:39:05.641Z,11.63
2022-11-12T10:42:02.331Z,12.87
2022-11-12T10:44:49.646Z,10.90
2022-11-12T10:47:43.027Z,10.37
2022-11-12T10:50:35.180Z,9.63
2022-11-12T10:53:35.335Z,9.53
2022-11-12T10:56:29.982Z,9.33
2022-11-12T10:59:16.889Z,10.40
2022-11-12T11:02:03.816Z,8.90
2022-11-12T11:04:50.680Z,9.90
2022-11-12T11:07:37.591Z,10.87
2022-11-12T11:10:29.363Z,11.53
2022-11-12T11:13:23.874Z,9.37
2022-11-12T11:16:12.958Z,10.70
2022-11-12T11:19:02.473Z,9.47
2022-11-12T11:21:49.386Z,10.03
2022-11-12T11:24:39.228Z,10.70
2022-11-12T11:27:35.671Z,12.63
2022-11-12T11:30:23.355Z,10.87
2022-11-12T11:33:20.817Z,11.90
2022-11-12T11:36:10.845Z,10.60
2022-11-12T11:39:20.753Z,11.33
2022-11-12T11:42:13.713Z,10.07
2022-11-12T11:45:03.509Z,11.93
2022-11-12T11:48:22.527Z,11.37
2022-11-12T11:51:12.155Z,9.47
2022-11-12T11:53:59.139Z,10.80
2022-11-12T11:56:46.495Z,10.20
2022-11-12T11:59:33.326Z,8.90
2022-11-12T12:02:29.918Z,9.63
2022-11-12T12:05:35.707Z,12.20
2022-11-12T12:08:36.794Z,11.27
2022-11-12T12:11:32.670Z,10.93
2022-11-12T12:14:25.721Z,12.63
2022-11-12T12:17:31.765Z,10.00
2022-11-12T12:20:26.507Z,12.87
2022-11-12T12:23:28.184Z,11.77
2022-11-12T12:26:17.580Z,8.93
2022-11-12T12:29:16.689Z,11.87
2022-11-12T12:32:25.923Z,11.40
2022-11-12T12:35:22.193Z,9.13
2022-11-12T12:38:14.646Z,9.20
2022-11-12T12:41:11.724Z,9.10
2022-11-12T12:44:04.622Z,9.77
2022-11-12T12:47:00.387Z,9.40
2022-11-12T12:49:49.306Z,8.97
2022-11-12T12:52:54.895Z,12.80
2022-11-12T12:55:43.194Z,10.57
2022-11-12T12:58:56.318Z,8.67
2022-11-12T13:01:43.265Z,9.17
2022-11-12T13:04:48.886Z,9.60
2022-11-12T13:07:40.762Z,9.07
2022-11-12T13:10:34.906Z,9.63
2022-11-12T13:13:21.771Z,8.53
2022-11-12T13:16:08.823Z,8.20
2022-11-12T13:18:55.716Z,9.30
2022-11-12T13:21:44.319Z,12.30
2022-11-12T13:24:57.609Z,9.10
2022-11-12T13:27:44.508Z,9.47
2022-11-12T13:30:31.418Z,8.47
2022-11-12T13:33:23.840Z,11.30
2022-11-12T13:36:23.749Z,12.20
2022-11-12T13:39:12.855Z,11.13
2022-11-12T13:42:18.456Z,10.60
2022-11-12T13:45:05.932Z,9.80
2022-11-12T13:47:53.517Z,9.23
2022-11-12T13:50:41.320Z,10.97
2022-11-12T13:53:30.837Z,9.20
2022-11-12T13:56:29.203Z,9.23
2022-11-12T13:59:20.588Z,11.73
2022-11-12T14:02:22.375Z,12.03
2022-11-12T14:05:16.930Z,10.27
2022-11-12T14:08:22.727Z,10.30
2022-11-12T14:11:35.750Z,9.63
2022-11-12T14:14:41.351Z,11.87
2022-11-12T14:17:36.542Z,13.70
2022-11-12T14:20:25.939Z,11.47
2022-11-12T14:23:23.164Z,12.30
2022-11-12T14:26:13.106Z,11.93
2022-11-12T14:29:00.018Z,11.23
2022-11-12T14:31:47.131Z,11.73
2022-11-12T14:34:34.390Z,15.93
2022-11-12T14:37:39.858Z,9.43
2022-11-12T14:40:32.092Z,12.93
2022-11-12T14:43:24.835Z,11.53
2022-11-12T14:46:28.993Z,10.97
2022-11-12T14:49:40.729Z,12.80
2022-11-12T14:52:40.799Z,10.97
2022-11-12T14:55:32.001Z,11.43
2022-11-12T14:58:19.649Z,12.50
2022-11-12T15:01:55.694Z,12.40
2022-11-12T15:04:35.904Z,11.50
2022-11-12T15:07:23.763Z,13.33
2022-11-12T15:10:29.754Z,14.03
2022-11-12T15:13:19.078Z,13.83
2022-11-12T15:16:07.556Z,12.17
2022-11-12T15:19:00.627Z,13.47
2022-11-12T15:21:48.803Z,12.87
2022-11-12T15:24:36.654Z,12.60
2022-11-12T15:27:38.538Z,13.37
2022-11-12T15:30:26.917Z,11.70
2022-11-12T15:33:16.337Z,12.63
2022-11-12T15:36:03.267Z,15.87
2022-11-12T15:38:51.483Z,15.40
2022-11-12T15:41:39.000Z,12.77
2022-11-12T15:44:26.028Z,15.07
2022-11-12T15:47:20.995Z,14.43
2022-11-12T15:50:14.267Z,13.07
2022-11-12T15:53:01.124Z,13.73
2022-11-12T15:55:47.916Z,13.93
2022-11-12T15:58:36.002Z,15.17
2022-11-12T16:01:22.807Z,15.10
2022-11-12T16:04:11.412Z,20.10
2022-11-12T16:06:59.809Z,18.87
2022-11-12T16:09:46.708Z,17.20
2022-11-12T16:12:34.096Z,18.67
2022-11-12T16:15:25.483Z,15.43
2022-11-12T16:18:12.403Z,17.87
2022-11-12T16:20:59.215Z,16.37
2022-11-12T16:23:45.981Z,23.00
2022-11-12T16:26:32.907Z,19.90
2022-11-12T16:29:19.817Z,16.90
2022-11-12T16:32:06.658Z,16.97
2022-11-12T16:34:57.049Z,18.33
2022-11-12T16:37:47.412Z,19.03
2022-11-12T16:40:34.241Z,19.20
2022-11-12T16:43:24.681Z,20.77
2022-11-12T16:46:31.255Z,18.03
2022-11-12T16:49:18.033Z,18.40
2022-11-12T16:52:04.811Z,21.00
2022-11-12T16:54:51.607Z,17.83
2022-11-12T16:57:38.453Z,17.53
2022-11-12T17:00:25.499Z,21.17
2022-11-12T17:03:13.348Z,21.57
2022-11-12T17:06:00.184Z,21.93
2022-11-12T17:08:48.163Z,27.53
2022-11-12T17:11:35.303Z,24.97
2022-11-12T17:14:25.604Z,25.20
2022-11-12T17:17:14.848Z,29.87
2022-11-12T17:20:01.812Z,28.30
2022-11-12T17:22:48.796Z,28.00
2022-11-12T17:25:35.708Z,28.87
2022-11-12T17:28:22.537Z,29.60
2022-11-12T17:31:15.323Z,29.70
2022-11-12T17:34:04.106Z,24.73
2022-11-12T17:36:50.909Z,26.77
2022-11-12T17:39:37.706Z,24.43
2022-11-12T17:42:24.524Z,25.03
2022-11-12T17:45:11.355Z,24.77
2022-11-12T17:47:58.215Z,27.03
2022-11-12T17:50:45.533Z,27.63
2022-11-12T17:53:32.424Z,25.50
2022-11-12T17:56:20.438Z,28.07
2022-11-12T17:59:07.302Z,29.90
2022-11-12T18:01:54.183Z,27.97
2022-11-12T18:04:41.152Z,32.37
2022-11-12T18:07:28.021Z,32.80
2022-11-12T18:10:19.350Z,34.77
2022-11-12T18:13:06.593Z,35.47
2022-11-12T18:15:53.535Z,34.03
2022-11-12T18:18:40.413Z,31.03
2022-11-12T18:21:27.706Z,35.80
2022-11-12T18:24:15.642Z,35.07
2022-11-12T18:27:02.539Z,35.83
2022-11-12T18:29:49.490Z,35.00
2022-11-12T18:32:36.572Z,35.40
2022-11-12T18:35:28.580Z,30.53
2022-11-12T18:38:16.665Z,33.47
2022-11-12T18:41:05.099Z,32.93
2022-11-12T18:43:52.517Z,34.57
2022-11-12T18:46:39.396Z,32.10
2022-11-12T18:49:26.229Z,35.17
2022-11-12T18:52:13.023Z,33.93
2022-11-12T18:54:59.916Z,33.97
2022-11-12T18:57:46.779Z,31.00
2022-11-12T19:00:33.713Z,29.53
2022-11-12T19:03:20.530Z,26.17
2022-11-12T19:06:07.575Z,33.07
2022-11-12T19:09:00.687Z,32.03
2022-11-12T19:11:47.613Z,33.73
2022-11-12T19:14:34.416Z,34.30
2022-11-12T19:17:21.639Z,36.13
2022-11-12T19:20:08.896Z,35.30
2022-11-12T19:22:56.441Z,31.80
2022-11-12T19:25:43.247Z,32.23
2022-11-12T19:28:30.866Z,32.43
2022-11-12T19:31:19.709Z,30.13
2022-11-12T19:34:07.321Z,32.13
2022-11-12T19:37:11.900Z,33.47
2022-11-12T19:40:01.307Z,34.37
2022-11-12T19:42:48.232Z,32.17
2022-11-12T19:45:35.099Z,36.63
2022-11-12T19:48:21.861Z,29.87
2022-11-12T19:51:09.447Z,28.83
2022-11-12T19:53:56.321Z,34.77
2022-11-12T19:56:43.129Z,28.50
2022-11-12T19:59:29.946Z,29.20
2022-11-12T20:02:16.808Z,27.63
2022-11-12T20:05:04.563Z,29.43
2022-11-12T20:07:52.057Z,27.63
2022-11-12T20:10:38.898Z,26.03
2022-11-12T20:13:26.708Z,27.40
2022-11-12T20:16:15.106Z,28.97
2022-11-12T20:19:02.659Z,26.00
2022-11-12T20:21:49.515Z,27.27
2022-11-12T20:24:36.577Z,24.63
2022-11-12T20:27:23.435Z,26.60
2022-11-12T20:30:10.499Z,29.80
2022-11-12T20:32:57.311Z,27.03
2022-11-12T20:35:44.356Z,27.00
2022-11-12T20:38:31.245Z,29.20
2022-11-12T20:41:20.099Z,30.23
2022-11-12T20:44:06.992Z,29.27
2022-11-12T20:46:53.796Z,27.77
2022-11-12T20:49:40.635Z,27.77
2022-11-12T20:52:27.437Z,25.93
2022-11-12T20:55:14.276Z,27.93
2022-11-12T20:58:01.083Z,24.50
2022-11-12T21:00:49.445Z,26.63
2022-11-12T21:03:37.250Z,26.97
2022-11-12T21:06:26.259Z,24.57
2022-11-12T21:09:13.187Z,31.27
2022-11-12T21:12:00.016Z,28.57
2022-11-12T21:14:50.357Z,25.53
2022-11-12T21:17:37.598Z,23.73
2022-11-12T21:20:24.533Z,23.70
2022-11-12T21:23:11.356Z,23.27
2022-11-12T21:26:01.984Z,22.97
2022-11-12T21:28:50.248Z,23.50
2022-11-12T21:31:37.447Z,19.63
2022-11-12T21:34:24.310Z,23.27
2022-11-12T21:37:11.267Z,21.50
2022-11-12T21:39:58.285Z,22.33
2022-11-12T21:42:45.447Z,22.77
2022-11-12T21:45:32.486Z,24.40
2022-11-12T21:48:19.294Z,21.23
2022-11-12T21:51:07.352Z,21.70
2022-11-12T21:53:55.038Z,23.50
2022-11-12T21:56:42.132Z,25.30
2022-11-12T21:59:29.390Z,21.93
2022-11-12T22:02:16.237Z,20.80
2022-11-12T22:05:03.239Z,20.77
2022-11-12T22:07:51.666Z,19.33
2022-11-12T22:10:39.146Z,16.73
2022-11-12T22:13:27.498Z,19.93
2022-11-12T22:16:16.365Z,19.67
2022-11-12T22:19:03.345Z,22.17
2022-11-12T22:21:50.532Z,21.73
2022-11-12T22:24:37.888Z,20.73
2022-11-12T22:27:26.037Z,19.90
2022-11-12T22:30:12.862Z,20.67
2022-11-12T22:33:00.056Z,25.07
2022-11-12T22:35:47.191Z,26.13
2022-11-12T22:38:35.520Z,24.17
2022-11-12T22:41:29.974Z,22.07
2022-11-12T22:44:16.896Z,24.60
2022-11-12T22:47:03.761Z,21.00
2022-11-12T22:49:50.676Z,23.37
2022-11-12T22:52:37.490Z,19.00
2022-11-12T22:55:24.297Z,19.80
2022-11-12T22:58:12.023Z,23.77
2022-11-12T23:00:58.967Z,23.83
2022-11-12T23:03:45.802Z,21.47
2022-11-12T23:06:32.978Z,20.43
2022-11-12T23:09:19.805Z,21.57
2022-11-12T23:12:06.711Z,21.10
2022-11-12T23:14:54.872Z,20.03
2022-11-12T23:17:41.745Z,19.97
2022-11-12T23:20:28.506Z,19.17
2022-11-12T23:23:15.360Z,20.40
2022-11-12T23:26:03.776Z,22.10
2022-11-12T23:28:51.277Z,18.40
2022-11-12T23:31:38.584Z,19.27
2022-11-12T23:34:25.799Z,23.10
2022-11-12T23:37:12.726Z,19.27
2022-11-12T23:39:59.912Z,20.90
2022-11-12T23:42:46.894Z,22.03
2022-11-12T23:45:38.098Z,19.63
2022-11-12T23:48:25.685Z,24.63
2022-11-12T23:51:14.437Z,18.97
2022-11-12T23:54:01.272Z,21.60
2022-11-12T23:56:48.564Z,21.80
2022-11-12T23:59:35.706Z,21.37
